createdAt,value
2017-11-12T00:01:22.470Z,3.50
2017-11-12T00:03:50.424Z,2.83
2017-11-12T00:06:18.350Z,2.07
2017-11-12T00:08:46.320Z,3.07
2017-11-12T00:11:14.272Z,2.80
2017-11-12T00:13:42.269Z,2.93
2017-11-12T00:16:10.251Z,2.33
2017-11-12T00:18:38.258Z,2.33
2017-11-12T00:21:06.192Z,2.27
2017-11-12T00:23:34.123Z,2.73
2017-11-12T00:26:02.087Z,3.27
2017-11-12T00:28:30.156Z,3.03
2017-11-12T00:30:58.084Z,2.73
2017-11-12T00:33:26.102Z,3.30
2017-11-12T00:35:54.089Z,2.60
2017-11-12T00:38:22.313Z,2.27
2017-11-12T00:40:50.261Z,3.10
2017-11-12T00:43:18.210Z,2.90
2017-11-12T00:45:46.166Z,2.40
2017-11-12T00:48:14.141Z,3.30
2017-11-12T00:50:42.196Z,3.50
2017-11-12T00:53:10.153Z,3.00
2017-11-12T00:55:38.162Z,4.47
2017-11-12T00:58:06.102Z,3.23
2017-11-12T01:00:34.032Z,2.60
2017-11-12T01:03:02.023Z,4.40
2017-11-12T01:05:30.052Z,3.80
2017-11-12T01:07:57.990Z,3.30
2017-11-12T01:10:26.567Z,2.70
2017-11-12T01:12:54.715Z,3.50
2017-11-12T01:15:22.725Z,3.00
2017-11-12T01:17:50.773Z,3.60
2017-11-12T01:20:18.759Z,4.20
2017-11-12T01:22:46.680Z,3.70
2017-11-12T01:25:14.946Z,3.70
2017-11-12T01:27:42.984Z,3.63
2017-11-12T01:30:10.986Z,3.67
2017-11-12T01:32:39.016Z,3.93
2017-11-12T01:35:07.174Z,3.87
2017-11-12T01:37:35.917Z,3.10
2017-11-12T01:40:03.892Z,3.43
2017-11-12T01:42:32.003Z,3.27
2017-11-12T01:44:59.948Z,3.97
2017-11-12T01:47:27.935Z,4.60
2017-11-12T01:49:57.584Z,4.00
2017-11-12T01:52:25.597Z,4.40
2017-11-12T01:54:53.565Z,5.70
2017-11-12T01:57:21.511Z,5.60
2017-11-12T01:59:49.431Z,5.77
2017-11-12T02:02:17.735Z,6.43
2017-11-12T02:04:45.695Z,6.43
2017-11-12T02:07:13.713Z,5.80
2017-11-12T02:09:41.927Z,6.50
2017-11-12T02:12:09.909Z,6.63
2017-11-12T02:14:37.950Z,7.17
2017-11-12T02:17:05.912Z,6.40
2017-11-12T02:19:33.956Z,7.60
2017-11-12T02:22:01.901Z,6.90
2017-11-12T02:24:29.849Z,7.23
2017-11-12T02:26:57.797Z,5.53
2017-11-12T02:29:26.851Z,6.20
2017-11-12T02:31:54.827Z,8.27
2017-11-12T02:34:22.744Z,7.00
2017-11-12T02:36:50.723Z,6.87
2017-11-12T02:39:18.688Z,6.50
2017-11-12T02:41:46.674Z,6.60
2017-11-12T02:44:14.675Z,6.50
2017-11-12T02:46:42.690Z,6.87
2017-11-12T02:49:10.749Z,6.33
2017-11-12T02:51:38.684Z,7.33
2017-11-12T02:54:06.712Z,7.23
2017-11-12T02:56:34.650Z,6.77
2017-11-12T02:59:02.590Z,6.20
2017-11-12T03:01:30.560Z,6.20
2017-11-12T03:03:58.496Z,6.00
2017-11-12T03:06:26.508Z,6.80
2017-11-12T03:08:54.464Z,7.03
2017-11-12T03:11:22.444Z,5.80
2017-11-12T03:13:50.402Z,6.53
2017-11-12T03:16:18.600Z,6.50
2017-11-12T03:18:46.764Z,6.60
2017-11-12T03:21:14.718Z,6.70
2017-11-12T03:23:42.748Z,6.77
2017-11-12T03:26:11.633Z,8.87
2017-11-12T03:28:39.621Z,7.77
2017-11-12T03:31:07.572Z,7.37
2017-11-12T03:33:35.488Z,7.67
2017-11-12T03:36:04.318Z,7.30
2017-11-12T03:38:32.295Z,6.60
2017-11-12T03:41:00.277Z,8.07
2017-11-12T03:43:28.247Z,6.87
2017-11-12T03:45:56.378Z,7.50
2017-11-12T03:48:25.096Z,6.47
2017-11-12T03:50:53.108Z,7.13
2017-11-12T03:53:21.115Z,8.17
2017-11-12T03:55:49.419Z,7.20
2017-11-12T03:58:17.872Z,7.77
2017-11-12T04:00:45.821Z,7.30
2017-11-12T04:03:13.807Z,6.30
2017-11-12T04:05:41.772Z,7.23
2017-11-12T04:08:09.695Z,7.07
2017-11-12T04:10:37.652Z,8.20
2017-11-12T04:13:05.586Z,7.53
2017-11-12T04:15:33.574Z,6.50
2017-11-12T04:18:01.582Z,6.30
2017-11-12T04:20:29.602Z,6.97
2017-11-12T04:22:57.541Z,7.07
2017-11-12T04:25:25.496Z,6.63
2017-11-12T04:27:53.474Z,5.93
2017-11-12T04:30:21.411Z,6.97
2017-11-12T04:32:50.102Z,6.77
2017-11-12T04:35:18.093Z,6.50
2017-11-12T04:37:46.062Z,6.13
2017-11-12T04:40:13.985Z,5.67
2017-11-12T04:42:41.927Z,5.80
2017-11-12T04:45:09.890Z,6.33
2017-11-12T04:47:37.858Z,5.43
2017-11-12T04:50:06.244Z,5.80
2017-11-12T04:52:34.209Z,5.77
2017-11-12T04:55:02.156Z,4.40
2017-11-12T04:57:30.181Z,5.10
2017-11-12T04:59:58.190Z,5.40
2017-11-12T05:02:26.161Z,4.17
2017-11-12T05:04:54.184Z,4.80
2017-11-12T05:07:22.133Z,4.37
2017-11-12T05:09:50.165Z,5.60
2017-11-12T05:12:18.097Z,4.30
2017-11-12T05:14:51.739Z,4.87
2017-11-12T05:17:19.663Z,4.83
2017-11-12T05:19:47.636Z,4.53
2017-11-12T05:22:15.604Z,4.30
2017-11-12T05:24:43.549Z,3.67
2017-11-12T05:27:11.500Z,4.27
2017-11-12T05:29:39.462Z,3.90
2017-11-12T05:32:07.483Z,4.33
2017-11-12T05:34:35.447Z,4.33
2017-11-12T05:37:03.519Z,5.40
2017-11-12T05:39:31.501Z,5.90
2017-11-12T05:41:59.502Z,5.53
2017-11-12T05:44:27.471Z,4.60
2017-11-12T05:46:55.440Z,5.07
2017-11-12T05:49:23.427Z,4.93
2017-11-12T05:51:51.446Z,4.47
2017-11-12T05:54:19.412Z,4.73
2017-11-12T05:56:47.404Z,4.57
2017-11-12T05:59:15.432Z,5.10
2017-11-12T06:01:43.376Z,5.50
2017-11-12T06:04:11.338Z,4.83
2017-11-12T06:06:39.400Z,5.60
2017-11-12T06:09:07.422Z,4.93
2017-11-12T06:11:35.399Z,5.30
2017-11-12T06:14:03.380Z,4.83
2017-11-12T06:16:31.339Z,5.60
2017-11-12T06:18:59.348Z,4.93
2017-11-12T06:21:27.322Z,5.87
2017-11-12T06:23:55.260Z,5.67
2017-11-12T06:26:23.210Z,5.77
2017-11-12T06:28:54.932Z,8.00
2017-11-12T06:31:23.507Z,6.20
2017-11-12T06:33:51.623Z,6.20
2017-11-12T06:36:19.863Z,5.53
2017-11-12T06:38:48.377Z,5.60
2017-11-12T06:41:16.443Z,5.90
2017-11-12T06:43:44.419Z,6.00
2017-11-12T06:46:12.431Z,5.80
2017-11-12T06:48:40.411Z,5.83
2017-11-12T06:51:08.377Z,6.73
2017-11-12T06:53:36.402Z,6.90
2017-11-12T06:56:04.802Z,6.47
2017-11-12T06:58:32.821Z,7.10
2017-11-12T07:01:00.851Z,8.73
2017-11-12T07:03:29.733Z,5.90
2017-11-12T07:05:57.886Z,6.63
2017-11-12T07:08:27.327Z,7.50
2017-11-12T07:10:56.220Z,6.67
2017-11-12T07:13:24.251Z,7.00
2017-11-12T07:15:52.230Z,6.20
2017-11-12T07:18:20.259Z,6.30
2017-11-12T07:20:48.268Z,6.10
2017-11-12T07:23:16.239Z,7.10
2017-11-12T07:25:44.205Z,6.10
2017-11-12T07:28:12.164Z,7.40
2017-11-12T07:30:40.388Z,7.57
2017-11-12T07:33:08.870Z,7.23
2017-11-12T07:35:36.944Z,7.83
2017-11-12T07:38:05.075Z,7.00
2017-11-12T07:40:33.191Z,6.60
2017-11-12T07:43:02.414Z,6.73
2017-11-12T07:45:30.408Z,7.90
2017-11-12T07:47:58.551Z,7.50
2017-11-12T07:50:26.679Z,9.13
2017-11-12T07:52:54.722Z,7.00
2017-11-12T07:55:23.072Z,6.70
2017-11-12T07:57:53.708Z,6.53
2017-11-12T08:00:22.494Z,6.13
2017-11-12T08:02:51.851Z,7.40
2017-11-12T08:05:19.893Z,7.07
2017-11-12T08:07:48.782Z,6.27
2017-11-12T08:10:18.186Z,6.30
2017-11-12T08:12:47.029Z,6.13
2017-11-12T08:15:15.632Z,5.90
2017-11-12T08:17:44.355Z,5.73
2017-11-12T08:20:12.691Z,6.67
2017-11-12T08:22:40.769Z,5.67
2017-11-12T08:25:08.790Z,5.60
2017-11-12T08:27:37.410Z,6.30
2017-11-12T08:30:06.244Z,5.40
2017-11-12T08:32:34.338Z,4.73
2017-11-12T08:35:07.724Z,6.00
2017-11-12T08:37:36.559Z,5.70
2017-11-12T08:40:04.857Z,5.60
2017-11-12T08:42:33.416Z,5.77
2017-11-12T08:45:01.916Z,5.90
2017-11-12T08:47:30.589Z,5.47
2017-11-12T08:49:59.465Z,5.57
2017-11-12T08:52:28.015Z,5.50
2017-11-12T08:54:56.435Z,6.30
2017-11-12T08:57:25.025Z,5.67
2017-11-12T08:59:53.104Z,6.80
2017-11-12T09:02:21.296Z,5.47
2017-11-12T09:04:49.425Z,6.03
2017-11-12T09:07:17.612Z,6.77
2017-11-12T09:09:45.703Z,5.27
2017-11-12T09:12:13.721Z,6.57
2017-11-12T09:14:42.561Z,7.00
2017-11-12T09:17:11.620Z,5.23
2017-11-12T09:19:39.631Z,5.80
2017-11-12T09:22:07.601Z,5.87
2017-11-12T09:24:35.616Z,5.27
2017-11-12T09:27:03.577Z,5.13
2017-11-12T09:29:31.535Z,4.60
2017-11-12T09:31:59.729Z,5.60
2017-11-12T09:34:27.678Z,5.23
2017-11-12T09:36:55.811Z,5.90
2017-11-12T09:39:24.854Z,5.00
2017-11-12T09:41:52.938Z,5.00
2017-11-12T09:44:21.051Z,5.00
2017-11-12T09:46:50.720Z,4.60
2017-11-12T09:49:19.605Z,4.50
2017-11-12T09:51:47.706Z,4.03
2017-11-12T09:54:15.801Z,4.20
2017-11-12T09:56:43.924Z,4.67
2017-11-12T09:59:11.892Z,4.13
2017-11-12T10:01:39.930Z,4.57
2017-11-12T10:04:07.938Z,4.53
2017-11-12T10:06:36.298Z,4.33
2017-11-12T10:09:04.323Z,4.10
2017-11-12T10:11:32.347Z,5.03
2017-11-12T10:14:00.342Z,3.80
2017-11-12T10:16:28.958Z,4.33
2017-11-12T10:18:57.060Z,4.90
2017-11-12T10:21:25.134Z,3.97
2017-11-12T10:23:53.229Z,4.70
2017-11-12T10:26:21.248Z,4.20
2017-11-12T10:28:49.204Z,4.20
2017-11-12T10:31:17.587Z,3.70
2017-11-12T10:33:46.545Z,3.60
2017-11-12T10:36:14.593Z,3.70
2017-11-12T10:38:43.731Z,3.50
2017-11-12T10:41:11.835Z,3.97
2017-11-12T10:43:39.938Z,4.23
2017-11-12T10:46:07.970Z,3.93
2017-11-12T10:48:35.902Z,3.77
2017-11-12T10:51:04.868Z,4.07
2017-11-12T10:53:32.900Z,3.77
2017-11-12T10:56:01.975Z,5.00
2017-11-12T10:58:29.989Z,4.20
2017-11-12T11:00:58.035Z,4.17
2017-11-12T11:03:26.221Z,4.30
2017-11-12T11:05:54.401Z,5.60
2017-11-12T11:08:22.629Z,4.60
2017-11-12T11:10:50.848Z,5.00
2017-11-12T11:13:20.344Z,5.40
2017-11-12T11:15:48.629Z,6.10
2017-11-12T11:18:16.788Z,7.17
2017-11-12T11:20:48.367Z,7.40
2017-11-12T11:23:16.356Z,5.50
2017-11-12T11:25:44.435Z,5.00
2017-11-12T11:28:14.065Z,5.67
2017-11-12T11:30:42.410Z,4.77
2017-11-12T11:33:10.452Z,5.30
2017-11-12T11:35:38.883Z,5.40
2017-11-12T11:38:06.836Z,5.70
2017-11-12T11:40:34.769Z,5.20
2017-11-12T11:43:02.845Z,5.50
2017-11-12T11:45:30.811Z,5.73
2017-11-12T11:48:01.385Z,4.67
2017-11-12T11:50:30.182Z,5.70
2017-11-12T11:52:58.129Z,5.10
2017-11-12T11:55:26.157Z,4.50
2017-11-12T11:57:54.222Z,4.47
2017-11-12T12:00:22.248Z,4.50
2017-11-12T12:02:51.087Z,3.90
2017-11-12T12:05:19.228Z,3.83
2017-11-12T12:07:47.415Z,4.20
2017-11-12T12:10:16.370Z,4.10
2017-11-12T12:12:44.596Z,3.97
2017-11-12T12:15:12.590Z,3.77
2017-11-12T12:17:40.658Z,4.33
2017-11-12T12:20:08.745Z,5.90
2017-11-12T12:22:36.738Z,3.73
2017-11-12T12:25:04.698Z,4.43
2017-11-12T12:27:32.669Z,4.63
2017-11-12T12:30:00.969Z,4.20
2017-11-12T12:32:29.697Z,4.67
2017-11-12T12:34:58.464Z,5.70
2017-11-12T12:37:26.738Z,5.27
2017-11-12T12:39:54.748Z,6.00
2017-11-12T12:42:22.797Z,5.70
2017-11-12T12:44:54.078Z,5.53
2017-11-12T12:47:22.709Z,8.50
2017-11-12T12:49:51.029Z,5.67
2017-11-12T12:52:19.024Z,6.80
2017-11-12T12:54:47.037Z,13.93
2017-11-12T12:57:14.976Z,9.00
2017-11-12T12:59:42.947Z,3.70
2017-11-12T13:02:10.893Z,3.60
2017-11-12T13:04:39.122Z,3.30
2017-11-12T13:07:07.860Z,3.50
2017-11-12T13:09:35.883Z,4.30
2017-11-12T13:12:04.043Z,3.70
2017-11-12T13:14:32.240Z,3.37
2017-11-12T13:17:00.206Z,3.60
2017-11-12T13:19:28.177Z,2.93
2017-11-12T13:21:56.198Z,3.57
2017-11-12T13:24:24.156Z,3.80
2017-11-12T13:26:52.373Z,3.73
2017-11-12T13:29:20.428Z,5.10
2017-11-12T13:31:48.445Z,4.77
2017-11-12T13:34:16.501Z,4.13
2017-11-12T13:36:45.069Z,5.57
2017-11-12T13:39:13.762Z,4.50
2017-11-12T13:41:41.790Z,4.17
2017-11-12T13:44:09.788Z,4.13
2017-11-12T13:46:37.882Z,4.03
2017-11-12T13:49:08.113Z,3.93
2017-11-12T13:54:10.606Z,5.50
2017-11-12T13:56:38.783Z,4.30
2017-11-12T13:59:06.821Z,5.63
2017-11-12T14:01:35.024Z,5.00
2017-11-12T14:04:03.140Z,5.20
2017-11-12T14:06:31.353Z,4.63
2017-11-12T14:09:02.964Z,5.10
2017-11-12T14:11:30.992Z,5.37
2017-11-12T14:13:58.963Z,5.03
2017-11-12T14:16:26.938Z,6.30
2017-11-12T14:18:54.926Z,5.10
2017-11-12T14:21:22.877Z,5.00
2017-11-12T14:23:50.889Z,5.63
2017-11-12T14:26:18.891Z,4.90
2017-11-12T14:28:46.977Z,5.23
2017-11-12T14:31:14.988Z,5.40
2017-11-12T14:33:43.035Z,5.70
2017-11-12T14:36:11.017Z,6.30
2017-11-12T14:38:39.162Z,6.53
2017-11-12T14:41:07.165Z,6.70
2017-11-12T14:43:35.365Z,5.90
2017-11-12T14:46:03.373Z,6.40
2017-11-12T14:48:31.377Z,6.67
2017-11-12T14:50:59.388Z,6.53
2017-11-12T14:53:27.414Z,5.50
2017-11-12T14:55:55.725Z,6.37
2017-11-12T14:58:23.810Z,5.63
2017-11-12T15:00:51.854Z,6.43
2017-11-12T15:03:19.837Z,6.47
2017-11-12T15:05:48.218Z,6.73
2017-11-12T15:08:16.970Z,7.40
2017-11-12T15:10:45.398Z,7.63
2017-11-12T15:13:13.453Z,7.30
2017-11-12T15:15:41.421Z,6.67
2017-11-12T15:18:09.379Z,7.60
2017-11-12T15:20:37.692Z,7.97
2017-11-12T15:23:06.088Z,8.10
2017-11-12T15:25:34.173Z,8.80
2017-11-12T15:28:04.332Z,7.17
2017-11-12T15:30:32.421Z,9.40
2017-11-12T15:33:00.486Z,8.30
2017-11-12T15:35:28.448Z,9.37
2017-11-12T15:37:57.121Z,8.00
2017-11-12T15:40:25.132Z,9.63
2017-11-12T15:42:53.166Z,8.90
2017-11-12T15:45:21.196Z,8.90
2017-11-12T15:47:49.243Z,7.90
2017-11-12T15:50:17.344Z,8.97
2017-11-12T15:52:45.343Z,9.97
2017-11-12T15:55:13.333Z,9.63
2017-11-12T15:57:41.385Z,9.83
2017-11-12T16:00:09.634Z,9.50
2017-11-12T16:02:37.651Z,11.10
2017-11-12T16:05:05.612Z,10.80
2017-11-12T16:07:33.658Z,11.77
2017-11-12T16:10:01.701Z,10.80
2017-11-12T16:12:29.671Z,11.80
2017-11-12T16:14:57.625Z,11.07
2017-11-12T16:17:25.696Z,11.23
2017-11-12T16:19:53.692Z,10.60
2017-11-12T16:22:21.641Z,12.00
2017-11-12T16:24:50.505Z,11.20
2017-11-12T16:27:18.540Z,11.20
2017-11-12T16:29:46.487Z,11.40
2017-11-12T16:32:14.998Z,11.47
2017-11-12T16:34:42.935Z,13.67
2017-11-12T16:37:10.902Z,14.27
2017-11-12T16:39:38.859Z,12.37
2017-11-12T16:42:07.127Z,12.00
2017-11-12T16:44:35.124Z,12.27
2017-11-12T16:47:03.048Z,11.77
2017-11-12T16:49:31.138Z,11.60
2017-11-12T16:52:00.554Z,13.40
2017-11-12T16:54:28.684Z,12.10
2017-11-12T16:56:58.361Z,12.33
2017-11-12T16:59:27.121Z,13.77
2017-11-12T17:01:55.162Z,12.70
2017-11-12T17:04:23.984Z,12.43
2017-11-12T17:06:51.975Z,13.10
2017-11-12T17:09:20.458Z,12.77
2017-11-12T17:11:49.976Z,13.03
2017-11-12T17:14:17.956Z,13.10
2017-11-12T17:16:46.040Z,13.30
2017-11-12T17:19:14.131Z,11.43
2017-11-12T17:21:42.143Z,12.13
2017-11-12T17:24:10.185Z,12.60
2017-11-12T17:26:38.153Z,12.17
2017-11-12T17:29:06.172Z,11.93
2017-11-12T17:31:34.165Z,12.47
2017-11-12T17:34:02.189Z,11.60
2017-11-12T17:36:30.531Z,12.90
2017-11-12T17:38:58.635Z,13.60
2017-11-12T17:41:28.221Z,13.13
2017-11-12T17:43:56.196Z,12.10
2017-11-12T17:46:24.304Z,12.80
2017-11-12T17:48:52.341Z,13.37
2017-11-12T17:51:20.303Z,12.50
2017-11-12T17:53:48.271Z,12.70
2017-11-12T17:56:16.249Z,14.40
2017-11-12T17:58:44.213Z,13.37
2017-11-12T18:01:12.184Z,14.30
2017-11-12T18:03:40.172Z,14.93
2017-11-12T18:06:08.189Z,13.73
2017-11-12T18:08:36.221Z,14.23
2017-11-12T18:11:04.226Z,14.27
2017-11-12T18:13:32.242Z,14.00
2017-11-12T18:16:00.788Z,12.90
2017-11-12T18:18:28.740Z,15.20
2017-11-12T18:20:56.714Z,15.33
2017-11-12T18:23:24.721Z,16.73
2017-11-12T18:25:54.237Z,15.20
2017-11-12T18:28:23.304Z,13.70
2017-11-12T18:30:51.333Z,15.10
2017-11-12T18:33:19.459Z,16.33
2017-11-12T18:35:47.528Z,16.33
2017-11-12T18:38:15.606Z,16.47
2017-11-12T18:40:43.585Z,15.97
2017-11-12T18:43:11.655Z,16.03
2017-11-12T18:45:39.723Z,17.00
2017-11-12T18:48:08.693Z,16.50
2017-11-12T18:50:36.901Z,16.60
2017-11-12T18:53:04.862Z,16.90
2017-11-12T18:55:48.441Z,17.37
2017-11-12T18:58:17.289Z,16.97
2017-11-12T19:01:00.895Z,17.23
2017-11-12T19:06:48.727Z,16.73
2017-11-12T19:09:19.127Z,16.97
2017-11-12T19:11:47.332Z,20.63
2017-11-12T19:14:15.247Z,19.70
2017-11-12T19:16:43.943Z,18.80
2017-11-12T19:19:16.829Z,18.37
2017-11-12T19:21:48.871Z,18.70
2017-11-12T19:24:36.202Z,20.30
2017-11-12T19:27:06.405Z,18.50
2017-11-12T19:29:36.012Z,19.13
2017-11-12T19:32:04.261Z,17.10
2017-11-12T19:34:32.362Z,17.77
2017-11-12T19:37:00.707Z,19.43
2017-11-12T19:39:29.043Z,20.43
2017-11-12T19:41:57.064Z,17.97
2017-11-12T19:44:25.259Z,18.87
2017-11-12T19:46:53.492Z,18.53
2017-11-12T19:49:21.602Z,23.10
2017-11-12T19:51:49.737Z,21.30
2017-11-12T19:54:17.753Z,21.90
2017-11-12T19:56:45.824Z,20.40
2017-11-12T19:59:14.019Z,23.10
2017-11-12T20:01:42.419Z,21.83
2017-11-12T20:04:10.575Z,20.10
2017-11-12T20:06:38.826Z,20.57
2017-11-12T20:09:07.084Z,22.43
2017-11-12T20:11:35.313Z,22.37
2017-11-12T20:14:03.436Z,21.27
2017-11-12T20:16:31.645Z,20.00
2017-11-12T20:19:00.639Z,22.30
2017-11-12T20:21:29.532Z,21.50
2017-11-12T20:23:58.652Z,21.60
2017-11-12T20:26:26.628Z,20.93
2017-11-12T20:28:54.645Z,21.20
2017-11-12T20:31:22.637Z,21.40
2017-11-12T20:33:50.607Z,21.20
2017-11-12T20:36:18.563Z,19.60
2017-11-12T20:38:46.556Z,18.53
2017-11-12T20:41:14.640Z,19.87
2017-11-12T20:43:42.722Z,20.17
2017-11-12T20:46:11.519Z,19.90
2017-11-12T20:48:39.475Z,20.10
2017-11-12T20:51:08.109Z,19.40
2017-11-12T20:53:36.101Z,19.07
2017-11-12T20:56:04.092Z,19.10
2017-11-12T20:58:32.071Z,20.03
2017-11-12T21:01:07.346Z,19.70
2017-11-12T21:03:35.350Z,19.33
2017-11-12T21:06:05.129Z,19.53
2017-11-12T21:08:33.422Z,19.03
2017-11-12T21:11:01.405Z,17.10
2017-11-12T21:13:29.499Z,18.70
2017-11-12T21:15:57.492Z,20.20
2017-11-12T21:18:25.540Z,20.00
2017-11-12T21:20:54.240Z,20.27
2017-11-12T21:23:24.755Z,19.20
2017-11-12T21:25:53.385Z,49.27
2017-11-12T21:28:25.959Z,63.53
2017-11-12T21:30:54.524Z,27.37
2017-11-12T21:33:32.448Z,114.40
2017-11-12T21:36:05.096Z,29.20
2017-11-12T21:38:33.123Z,22.40
2017-11-12T21:43:35.464Z,20.30
2017-11-12T21:46:03.478Z,22.07
2017-11-12T21:48:31.531Z,21.50
2017-11-12T21:50:59.487Z,21.50
2017-11-12T21:53:27.861Z,23.07
2017-11-12T21:55:55.890Z,19.40
2017-11-12T21:58:24.330Z,65.27
2017-11-12T22:00:52.304Z,32.23
2017-11-12T22:03:20.243Z,38.23
2017-11-12T22:05:48.252Z,30.93
2017-11-12T22:08:16.289Z,27.97
2017-11-12T22:10:44.447Z,50.20
2017-11-12T22:13:12.626Z,62.27
2017-11-12T22:15:41.322Z,38.23
2017-11-12T22:18:09.991Z,23.30
2017-11-12T22:20:38.619Z,21.33
2017-11-12T22:23:06.586Z,16.63
2017-11-12T22:25:34.579Z,16.70
2017-11-12T22:28:02.726Z,16.77
2017-11-12T22:30:30.786Z,15.63
2017-11-12T22:32:58.826Z,16.57
2017-11-12T22:35:27.012Z,16.50
2017-11-12T22:37:55.114Z,16.43
2017-11-12T22:40:23.258Z,16.80
2017-11-12T22:42:51.845Z,17.67
2017-11-12T22:45:19.954Z,16.27
2017-11-12T22:47:47.982Z,17.00
2017-11-12T22:50:16.310Z,16.00
2017-11-12T22:52:44.558Z,16.00
2017-11-12T22:55:12.920Z,15.43
2017-11-12T22:57:41.005Z,14.77
2017-11-12T23:00:10.007Z,16.40
2017-11-12T23:02:39.015Z,16.07
2017-11-12T23:05:07.459Z,14.83
2017-11-12T23:07:35.708Z,15.63
2017-11-12T23:10:05.758Z,11.77
2017-11-12T23:12:34.172Z,10.93
2017-11-12T23:15:03.470Z,9.40
2017-11-12T23:17:31.748Z,8.70
2017-11-12T23:20:04.144Z,8.90
2017-11-12T23:22:37.950Z,10.10
2017-11-12T23:25:06.240Z,8.60
2017-11-12T23:27:34.825Z,9.80
2017-11-12T23:30:03.025Z,10.33
2017-11-12T23:32:31.032Z,9.20
2017-11-12T23:34:59.002Z,9.57
2017-11-12T23:37:27.153Z,10.30
2017-11-12T23:40:04.508Z,8.97
2017-11-12T23:42:32.497Z,9.07
2017-11-12T23:45:00.758Z,8.60
2017-11-12T23:47:29.094Z,8.90
2017-11-12T23:49:57.781Z,8.83
2017-11-12T23:52:26.483Z,10.60
2017-11-12T23:54:54.485Z,10.10
2017-11-12T23:57:23.071Z,8.40
2017-11-12T23:59:52.483Z,10.30
